Aérodrome :
LOGIN :

S'inscrire | Disclaimer

   EN    FR    IT 

 










Légende :    VFR   VFR Marginal   IFR   IFR Intensif   IFR Très Intensif
Visi : 
Plafond : 
>= 8 km
>= 3000ft
5 à 8 km
1000 à 3000 ft
1500m à 5 km
500 à 1000 ft
800 à 1500m
200 à 500 ft
< 800m
< 200 ft
Symboles :   Orages  Brouillard  Fortes neiges  Fortes précipitations  Vent > 20 kt
SIGMETs :   Divers  Orages  Givrage  Turbulence  Onde Orograph.  Cendres Volcan.







- Altitude de l'aérodrome : 779 ft
- Code IATA : CMF
- Voir les cartes d'approche


LFLB - Chambery / Aix-Les-Bains

DERNIER METAR :
  • 300230Z AUTO 17003KT CAVOK 03/02 Q1014 NOSIG

METARs EXPIRÉS :
  • 300200Z AUTO 00000KT CAVOK 04/03 Q1014 NOSIG
  • 300130Z AUTO VRB02KT CAVOK 04/03 Q1014 NOSIG
  • 300100Z AUTO 16002KT CAVOK 04/03 Q1014 NOSIG
  • 300030Z AUTO 17002KT CAVOK 04/03 Q1014 NOSIG
  • 300000Z AUTO 00000KT CAVOK 05/04 Q1014 NOSIG

TAF TAF LFLB
Valide du 30 à 00h jusqu'au 01 à 00h UTC


292300Z 3000/3024 VRB03KT CAVOK
BECMG 3009/3011 34005KT
BECMG 3015/3017 22005KT
TEMPO 3021/3024 24020G30KT RA BKN030
Pas de NOTAMs connus pour ce terrain.
1 SIGMET publié pour la FIR Marseille (LFMM) :
 
Turbulence forte
LFMM SIGMET 1 VALID 300000/300400 LFPW
LFMM MARSEILLE FIR/UIR SEV TURB FCST WI N4315 E00230 - N4430 E00245 - N4530 E00430 - N4530 E00500 SFC/FL060 STNR INTSF=



MET'MAP, la Météo Aéronautique d'un coup d'oeil ! - Copyright ORBIFLY Décembre 2007 - Disclaimer

ORBIFLY MET'MAP TEAM :

Programmation & Développement : Alexandra Zaïnal
Conception & Développement : Baudouin d'Aumeries
Co-Programmation & Développement : Marc-Olivier Méhu
Soutien technique & logistique : Manuel Goepfert

Contact : metmap@orbifly.com




SOURCES & CREDITS :

   NOAA